Terminal Aerodrome Forecast
Issued by NWS Amarillo, TX

Home | Current Version | Previous Version | Text Only | Print | Product List | Glossary On
Versions: 1 2 3 4 5 6 7 8 9 10 11 12 13 14 15 16 17 18 19 20 21 22 23 24 25 26 27 28 29 30 31
000
FTUS44 KAMA 011100 RRA
TAFGUY
TAF
KGUY 011143Z 0112/0212 VRB04KT 4SM BR SCT007 OVC012
     FM011700 04007KT 5SM BR OVC010
     FM020400 11005KT 2SM BR OVC003=

USA.gov is the U.S. government's official web portal to all federal, state and local government web resources and services.